sensor_id;sensor_type;location;lat;lon;timestamp;P1;durP1;ratioP1;P2;durP2;ratioP2
74044;SDS011;62389;51.412;5.436;2023-03-31T00:01:48;6.35;;;1.80;;
74044;SDS011;62389;51.412;5.436;2023-03-31T00:04:13;4.45;;;2.00;;
74044;SDS011;62389;51.412;5.436;2023-03-31T00:06:39;3.85;;;1.90;;
74044;SDS011;62389;51.412;5.436;2023-03-31T00:09:09;5.85;;;2.20;;
74044;SDS011;62389;51.412;5.436;2023-03-31T00:11:37;8.30;;;2.10;;
74044;SDS011;62389;51.412;5.436;2023-03-31T00:14:03;5.68;;;1.80;;
74044;SDS011;62389;51.412;5.436;2023-03-31T00:16:31;6.07;;;1.92;;
74044;SDS011;62389;51.412;5.436;2023-03-31T00:19:00;8.63;;;2.17;;
74044;SDS011;62389;51.412;5.436;2023-03-31T00:21:26;7.72;;;1.85;;
74044;SDS011;62389;51.412;5.436;2023-03-31T00:23:57;5.38;;;1.45;;
74044;SDS011;62389;51.412;5.436;2023-03-31T00:26:24;6.32;;;1.65;;
74044;SDS011;62389;51.412;5.436;2023-03-31T00:28:50;5.10;;;1.25;;
74044;SDS011;62389;51.412;5.436;2023-03-31T00:31:17;6.70;;;1.85;;
74044;SDS011;62389;51.412;5.436;2023-03-31T00:33:43;4.50;;;1.65;;
74044;SDS011;62389;51.412;5.436;2023-03-31T00:36:08;8.35;;;1.80;;
74044;SDS011;62389;51.412;5.436;2023-03-31T00:38:34;7.88;;;1.85;;
74044;SDS011;62389;51.412;5.436;2023-03-31T00:41:00;3.92;;;1.42;;
74044;SDS011;62389;51.412;5.436;2023-03-31T00:43:30;6.75;;;1.85;;
74044;SDS011;62389;51.412;5.436;2023-03-31T00:46:20;3.95;;;1.60;;
74044;SDS011;62389;51.412;5.436;2023-03-31T00:51:16;4.35;;;1.50;;
74044;SDS011;62389;51.412;5.436;2023-03-31T00:53:45;9.30;;;2.65;;
74044;SDS011;62389;51.412;5.436;2023-03-31T00:56:12;4.07;;;1.48;;
74044;SDS011;62389;51.412;5.436;2023-03-31T00:58:40;8.23;;;1.58;;
74044;SDS011;62389;51.412;5.436;2023-03-31T01:01:07;7.15;;;1.83;;
74044;SDS011;62389;51.412;5.436;2023-03-31T01:03:38;4.50;;;1.70;;
74044;SDS011;62389;51.412;5.436;2023-03-31T01:06:06;6.70;;;1.33;;
74044;SDS011;62389;51.412;5.436;2023-03-31T01:08:34;6.90;;;1.77;;
74044;SDS011;62389;51.412;5.436;2023-03-31T01:11:05;4.55;;;1.23;;
74044;SDS011;62389;51.412;5.436;2023-03-31T01:13:37;4.72;;;1.65;;
74044;SDS011;62389;51.412;5.436;2023-03-31T01:16:04;5.85;;;1.75;;
74044;SDS011;62389;51.412;5.436;2023-03-31T01:18:29;6.53;;;2.17;;
74044;SDS011;62389;51.412;5.436;2023-03-31T01:24:22;5.57;;;2.15;;
74044;SDS011;62389;51.412;5.436;2023-03-31T01:47:58;8.85;;;2.25;;
74044;SDS011;62389;51.412;5.436;2023-03-31T01:53:02;8.07;;;2.40;;
74044;SDS011;62389;51.412;5.436;2023-03-31T01:55:41;9.52;;;2.58;;
74044;SDS011;62389;51.412;5.436;2023-03-31T01:58:43;7.82;;;2.45;;
74044;SDS011;62389;51.412;5.436;2023-03-31T02:01:30;7.93;;;2.35;;
74044;SDS011;62389;51.412;5.436;2023-03-31T02:06:44;9.57;;;2.35;;
74044;SDS011;62389;51.412;5.436;2023-03-31T02:09:18;13.38;;;2.60;;
74044;SDS011;62389;51.412;5.436;2023-03-31T02:11:46;7.47;;;2.30;;
74044;SDS011;62389;51.412;5.436;2023-03-31T02:14:16;11.20;;;3.10;;
74044;SDS011;62389;51.412;5.436;2023-03-31T02:16:45;9.27;;;2.60;;
74044;SDS011;62389;51.412;5.436;2023-03-31T02:19:14;9.85;;;2.58;;
74044;SDS011;62389;51.412;5.436;2023-03-31T02:21:43;12.15;;;2.80;;
74044;SDS011;62389;51.412;5.436;2023-03-31T02:24:13;7.07;;;2.28;;
74044;SDS011;62389;51.412;5.436;2023-03-31T02:26:42;9.38;;;2.22;;
74044;SDS011;62389;51.412;5.436;2023-03-31T02:29:13;9.25;;;2.55;;
74044;SDS011;62389;51.412;5.436;2023-03-31T02:34:19;12.75;;;2.53;;
74044;SDS011;62389;51.412;5.436;2023-03-31T02:36:45;11.32;;;2.45;;
74044;SDS011;62389;51.412;5.436;2023-03-31T02:39:12;6.63;;;2.03;;
74044;SDS011;62389;51.412;5.436;2023-03-31T02:41:41;12.13;;;2.50;;
74044;SDS011;62389;51.412;5.436;2023-03-31T02:44:08;8.40;;;2.30;;
74044;SDS011;62389;51.412;5.436;2023-03-31T02:46:35;12.93;;;2.10;;
74044;SDS011;62389;51.412;5.436;2023-03-31T02:49:01;10.38;;;2.15;;
74044;SDS011;62389;51.412;5.436;2023-03-31T03:02:36;11.35;;;2.53;;
74044;SDS011;62389;51.412;5.436;2023-03-31T03:13:29;8.98;;;1.80;;
74044;SDS011;62389;51.412;5.436;2023-03-31T03:16:23;10.55;;;3.25;;
74044;SDS011;62389;51.412;5.436;2023-03-31T03:18:56;7.85;;;2.17;;
74044;SDS011;62389;51.412;5.436;2023-03-31T03:21:24;8.98;;;2.42;;
74044;SDS011;62389;51.412;5.436;2023-03-31T03:23:49;11.20;;;1.77;;
74044;SDS011;62389;51.412;5.436;2023-03-31T03:26:16;10.63;;;2.50;;
74044;SDS011;62389;51.412;5.436;2023-03-31T03:28:45;7.78;;;2.10;;
74044;SDS011;62389;51.412;5.436;2023-03-31T03:31:17;9.68;;;1.92;;
74044;SDS011;62389;51.412;5.436;2023-03-31T03:33:42;11.52;;;2.67;;
74044;SDS011;62389;51.412;5.436;2023-03-31T03:36:08;9.73;;;2.00;;
74044;SDS011;62389;51.412;5.436;2023-03-31T03:38:34;7.70;;;1.90;;
74044;SDS011;62389;51.412;5.436;2023-03-31T03:41:00;6.10;;;1.73;;
74044;SDS011;62389;51.412;5.436;2023-03-31T03:43:26;5.53;;;1.35;;
74044;SDS011;62389;51.412;5.436;2023-03-31T03:45:51;12.85;;;2.35;;
74044;SDS011;62389;51.412;5.436;2023-03-31T03:48:17;8.90;;;1.92;;
74044;SDS011;62389;51.412;5.436;2023-03-31T03:50:44;10.43;;;2.53;;
74044;SDS011;62389;51.412;5.436;2023-03-31T03:53:12;8.13;;;1.90;;
74044;SDS011;62389;51.412;5.436;2023-03-31T03:55:38;6.63;;;1.73;;
74044;SDS011;62389;51.412;5.436;2023-03-31T03:58:03;5.65;;;2.10;;
74044;SDS011;62389;51.412;5.436;2023-03-31T04:00:29;8.70;;;1.92;;
74044;SDS011;62389;51.412;5.436;2023-03-31T04:02:54;4.18;;;1.63;;
74044;SDS011;62389;51.412;5.436;2023-03-31T04:05:20;10.50;;;1.98;;
74044;SDS011;62389;51.412;5.436;2023-03-31T04:07:45;10.35;;;2.13;;
74044;SDS011;62389;51.412;5.436;2023-03-31T04:10:11;7.93;;;2.22;;
74044;SDS011;62389;51.412;5.436;2023-03-31T04:12:36;6.68;;;1.60;;
74044;SDS011;62389;51.412;5.436;2023-03-31T04:15:02;4.90;;;2.13;;
74044;SDS011;62389;51.412;5.436;2023-03-31T04:17:28;6.38;;;1.63;;
74044;SDS011;62389;51.412;5.436;2023-03-31T04:20:01;5.55;;;1.60;;
74044;SDS011;62389;51.412;5.436;2023-03-31T04:22:36;7.35;;;1.85;;
74044;SDS011;62389;51.412;5.436;2023-03-31T04:25:09;4.78;;;1.90;;
74044;SDS011;62389;51.412;5.436;2023-03-31T04:27:45;9.00;;;1.90;;
74044;SDS011;62389;51.412;5.436;2023-03-31T04:30:17;5.40;;;1.80;;
74044;SDS011;62389;51.412;5.436;2023-03-31T04:32:55;8.05;;;1.80;;
74044;SDS011;62389;51.412;5.436;2023-03-31T04:35:23;8.95;;;2.15;;
74044;SDS011;62389;51.412;5.436;2023-03-31T04:37:50;5.93;;;1.75;;
74044;SDS011;62389;51.412;5.436;2023-03-31T04:40:22;4.50;;;1.63;;
74044;SDS011;62389;51.412;5.436;2023-03-31T04:42:48;9.32;;;1.60;;
74044;SDS011;62389;51.412;5.436;2023-03-31T04:45:14;7.30;;;1.60;;
74044;SDS011;62389;51.412;5.436;2023-03-31T04:47:39;6.60;;;1.80;;
74044;SDS011;62389;51.412;5.436;2023-03-31T04:50:06;6.78;;;1.85;;
74044;SDS011;62389;51.412;5.436;2023-03-31T04:52:32;6.93;;;1.80;;
74044;SDS011;62389;51.412;5.436;2023-03-31T04:54:57;6.45;;;1.63;;
74044;SDS011;62389;51.412;5.436;2023-03-31T04:57:23;4.85;;;1.80;;
74044;SDS011;62389;51.412;5.436;2023-03-31T04:59:48;6.25;;;1.67;;
74044;SDS011;62389;51.412;5.436;2023-03-31T05:02:13;5.72;;;1.50;;
74044;SDS011;62389;51.412;5.436;2023-03-31T05:04:45;7.65;;;1.75;;
74044;SDS011;62389;51.412;5.436;2023-03-31T05:07:11;5.00;;;2.13;;
74044;SDS011;62389;51.412;5.436;2023-03-31T05:09:36;5.82;;;1.88;;
74044;SDS011;62389;51.412;5.436;2023-03-31T05:12:01;9.27;;;1.83;;
74044;SDS011;62389;51.412;5.436;2023-03-31T05:14:27;5.65;;;1.67;;
74044;SDS011;62389;51.412;5.436;2023-03-31T05:16:54;6.57;;;1.80;;
74044;SDS011;62389;51.412;5.436;2023-03-31T05:19:21;5.82;;;1.55;;
74044;SDS011;62389;51.412;5.436;2023-03-31T05:21:47;6.72;;;1.92;;
74044;SDS011;62389;51.412;5.436;2023-03-31T05:24:12;7.10;;;1.70;;
74044;SDS011;62389;51.412;5.436;2023-03-31T05:26:38;5.43;;;1.73;;
74044;SDS011;62389;51.412;5.436;2023-03-31T05:29:05;5.18;;;1.80;;
74044;SDS011;62389;51.412;5.436;2023-03-31T05:31:30;6.78;;;2.13;;
74044;SDS011;62389;51.412;5.436;2023-03-31T05:33:56;5.72;;;2.17;;
74044;SDS011;62389;51.412;5.436;2023-03-31T05:36:21;5.20;;;1.48;;
74044;SDS011;62389;51.412;5.436;2023-03-31T05:38:47;3.25;;;1.45;;
74044;SDS011;62389;51.412;5.436;2023-03-31T05:41:12;5.28;;;1.60;;
74044;SDS011;62389;51.412;5.436;2023-03-31T05:43:38;6.30;;;1.88;;
74044;SDS011;62389;51.412;5.436;2023-03-31T05:46:03;7.57;;;1.73;;
74044;SDS011;62389;51.412;5.436;2023-03-31T05:48:30;8.60;;;2.20;;
74044;SDS011;62389;51.412;5.436;2023-03-31T05:50:56;4.45;;;1.50;;
74044;SDS011;62389;51.412;5.436;2023-03-31T05:53:22;4.60;;;1.65;;
74044;SDS011;62389;51.412;5.436;2023-03-31T05:55:48;13.40;;;1.88;;
74044;SDS011;62389;51.412;5.436;2023-03-31T05:58:13;5.32;;;1.80;;
74044;SDS011;62389;51.412;5.436;2023-03-31T06:00:39;6.07;;;2.20;;
74044;SDS011;62389;51.412;5.436;2023-03-31T06:03:04;5.65;;;2.10;;
74044;SDS011;62389;51.412;5.436;2023-03-31T06:07:57;4.28;;;2.03;;
74044;SDS011;62389;51.412;5.436;2023-03-31T06:10:22;5.07;;;1.95;;
74044;SDS011;62389;51.412;5.436;2023-03-31T06:12:47;8.05;;;1.40;;
74044;SDS011;62389;51.412;5.436;2023-03-31T06:15:13;5.30;;;1.73;;
74044;SDS011;62389;51.412;5.436;2023-03-31T06:17:38;5.30;;;2.00;;
74044;SDS011;62389;51.412;5.436;2023-03-31T06:20:04;5.90;;;1.85;;
74044;SDS011;62389;51.412;5.436;2023-03-31T06:22:30;5.43;;;1.48;;
74044;SDS011;62389;51.412;5.436;2023-03-31T06:24:56;8.20;;;2.25;;
74044;SDS011;62389;51.412;5.436;2023-03-31T06:27:22;6.85;;;2.20;;
74044;SDS011;62389;51.412;5.436;2023-03-31T06:29:47;6.25;;;2.00;;
74044;SDS011;62389;51.412;5.436;2023-03-31T06:32:14;7.18;;;2.00;;
74044;SDS011;62389;51.412;5.436;2023-03-31T06:34:39;4.68;;;1.95;;
74044;SDS011;62389;51.412;5.436;2023-03-31T06:37:05;9.93;;;2.67;;
74044;SDS011;62389;51.412;5.436;2023-03-31T06:39:30;8.60;;;2.42;;
74044;SDS011;62389;51.412;5.436;2023-03-31T06:41:55;3.67;;;1.65;;
74044;SDS011;62389;51.412;5.436;2023-03-31T06:44:21;10.05;;;2.53;;
74044;SDS011;62389;51.412;5.436;2023-03-31T06:46:48;11.27;;;2.63;;
74044;SDS011;62389;51.412;5.436;2023-03-31T06:49:13;6.95;;;2.33;;
74044;SDS011;62389;51.412;5.436;2023-03-31T06:51:39;8.43;;;2.50;;
74044;SDS011;62389;51.412;5.436;2023-03-31T06:54:04;11.18;;;2.53;;
74044;SDS011;62389;51.412;5.436;2023-03-31T06:56:30;11.70;;;2.50;;
74044;SDS011;62389;51.412;5.436;2023-03-31T06:58:55;11.93;;;2.65;;
74044;SDS011;62389;51.412;5.436;2023-03-31T07:01:21;9.77;;;2.33;;
74044;SDS011;62389;51.412;5.436;2023-03-31T07:03:46;8.00;;;2.70;;
74044;SDS011;62389;51.412;5.436;2023-03-31T07:06:11;8.25;;;2.65;;
74044;SDS011;62389;51.412;5.436;2023-03-31T07:08:37;7.85;;;2.97;;
74044;SDS011;62389;51.412;5.436;2023-03-31T07:11:02;6.30;;;2.45;;
74044;SDS011;62389;51.412;5.436;2023-03-31T07:13:28;8.18;;;2.63;;
74044;SDS011;62389;51.412;5.436;2023-03-31T07:15:54;14.88;;;3.17;;
74044;SDS011;62389;51.412;5.436;2023-03-31T07:18:19;8.52;;;2.95;;
74044;SDS011;62389;51.412;5.436;2023-03-31T07:20:48;12.32;;;3.05;;
74044;SDS011;62389;51.412;5.436;2023-03-31T07:23:14;8.23;;;1.92;;
74044;SDS011;62389;51.412;5.436;2023-03-31T07:25:40;8.60;;;2.95;;
74044;SDS011;62389;51.412;5.436;2023-03-31T07:28:05;8.68;;;2.53;;
74044;SDS011;62389;51.412;5.436;2023-03-31T07:30:31;9.57;;;2.72;;
74044;SDS011;62389;51.412;5.436;2023-03-31T07:32:57;7.97;;;2.92;;
74044;SDS011;62389;51.412;5.436;2023-03-31T07:35:23;10.68;;;2.50;;
74044;SDS011;62389;51.412;5.436;2023-03-31T07:37:49;8.18;;;2.83;;
74044;SDS011;62389;51.412;5.436;2023-03-31T07:40:16;10.30;;;2.78;;
74044;SDS011;62389;51.412;5.436;2023-03-31T07:42:44;10.00;;;3.10;;
74044;SDS011;62389;51.412;5.436;2023-03-31T07:45:11;10.02;;;2.90;;
74044;SDS011;62389;51.412;5.436;2023-03-31T07:47:36;13.00;;;3.22;;
74044;SDS011;62389;51.412;5.436;2023-03-31T07:50:03;8.73;;;3.22;;
74044;SDS011;62389;51.412;5.436;2023-03-31T07:52:29;7.32;;;2.88;;
74044;SDS011;62389;51.412;5.436;2023-03-31T07:54:54;8.68;;;2.72;;
74044;SDS011;62389;51.412;5.436;2023-03-31T07:57:20;16.08;;;3.33;;
74044;SDS011;62389;51.412;5.436;2023-03-31T07:59:45;9.50;;;3.63;;
74044;SDS011;62389;51.412;5.436;2023-03-31T08:02:11;10.52;;;3.63;;
74044;SDS011;62389;51.412;5.436;2023-03-31T08:04:38;11.80;;;2.72;;
74044;SDS011;62389;51.412;5.436;2023-03-31T08:07:06;12.00;;;2.38;;
74044;SDS011;62389;51.412;5.436;2023-03-31T08:09:32;11.65;;;3.13;;
74044;SDS011;62389;51.412;5.436;2023-03-31T08:11:58;12.18;;;2.92;;
74044;SDS011;62389;51.412;5.436;2023-03-31T08:14:23;14.23;;;2.95;;
74044;SDS011;62389;51.412;5.436;2023-03-31T08:16:48;13.90;;;3.28;;
74044;SDS011;62389;51.412;5.436;2023-03-31T08:19:15;9.10;;;3.05;;
74044;SDS011;62389;51.412;5.436;2023-03-31T08:21:41;11.55;;;3.35;;
74044;SDS011;62389;51.412;5.436;2023-03-31T08:24:06;14.10;;;3.65;;
74044;SDS011;62389;51.412;5.436;2023-03-31T08:26:31;8.23;;;3.50;;
74044;SDS011;62389;51.412;5.436;2023-03-31T08:28:59;11.55;;;2.85;;
74044;SDS011;62389;51.412;5.436;2023-03-31T08:31:24;15.07;;;3.13;;
74044;SDS011;62389;51.412;5.436;2023-03-31T08:33:50;9.18;;;2.55;;
74044;SDS011;62389;51.412;5.436;2023-03-31T08:36:15;15.65;;;4.10;;
74044;SDS011;62389;51.412;5.436;2023-03-31T08:38:42;11.52;;;2.50;;
74044;SDS011;62389;51.412;5.436;2023-03-31T08:46:55;10.18;;;2.63;;
74044;SDS011;62389;51.412;5.436;2023-03-31T08:49:23;14.70;;;3.40;;
74044;SDS011;62389;51.412;5.436;2023-03-31T08:51:51;11.27;;;3.28;;
74044;SDS011;62389;51.412;5.436;2023-03-31T08:54:41;8.45;;;2.25;;
74044;SDS011;62389;51.412;5.436;2023-03-31T08:57:20;11.57;;;2.97;;
74044;SDS011;62389;51.412;5.436;2023-03-31T08:59:53;13.07;;;3.47;;
74044;SDS011;62389;51.412;5.436;2023-03-31T09:08:32;14.55;;;2.50;;
74044;SDS011;62389;51.412;5.436;2023-03-31T09:16:25;8.70;;;2.20;;
74044;SDS011;62389;51.412;5.436;2023-03-31T09:19:00;12.77;;;2.75;;
74044;SDS011;62389;51.412;5.436;2023-03-31T09:21:30;12.10;;;2.60;;
74044;SDS011;62389;51.412;5.436;2023-03-31T09:24:10;11.02;;;2.60;;
74044;SDS011;62389;51.412;5.436;2023-03-31T09:26:49;10.35;;;2.63;;
74044;SDS011;62389;51.412;5.436;2023-03-31T09:31:51;9.55;;;2.35;;
74044;SDS011;62389;51.412;5.436;2023-03-31T09:34:25;12.63;;;2.42;;
74044;SDS011;62389;51.412;5.436;2023-03-31T09:36:53;11.30;;;2.72;;
74044;SDS011;62389;51.412;5.436;2023-03-31T09:39:19;7.63;;;2.00;;
74044;SDS011;62389;51.412;5.436;2023-03-31T09:41:45;11.20;;;1.90;;
74044;SDS011;62389;51.412;5.436;2023-03-31T09:44:24;8.10;;;2.42;;
74044;SDS011;62389;51.412;5.436;2023-03-31T09:47:12;9.75;;;2.25;;
74044;SDS011;62389;51.412;5.436;2023-03-31T09:49:44;10.80;;;2.20;;
74044;SDS011;62389;51.412;5.436;2023-03-31T09:52:27;10.55;;;1.85;;
74044;SDS011;62389;51.412;5.436;2023-03-31T09:54:55;10.13;;;2.33;;
74044;SDS011;62389;51.412;5.436;2023-03-31T09:57:34;11.93;;;2.33;;
74044;SDS011;62389;51.412;5.436;2023-03-31T10:02:38;8.50;;;2.35;;
74044;SDS011;62389;51.412;5.436;2023-03-31T10:05:17;6.03;;;1.92;;
74044;SDS011;62389;51.412;5.436;2023-03-31T10:07:49;9.82;;;2.63;;
74044;SDS011;62389;51.412;5.436;2023-03-31T10:10:25;8.88;;;1.85;;
74044;SDS011;62389;51.412;5.436;2023-03-31T10:12:55;6.47;;;1.95;;
74044;SDS011;62389;51.412;5.436;2023-03-31T10:15:22;6.10;;;1.63;;
74044;SDS011;62389;51.412;5.436;2023-03-31T10:17:50;6.18;;;1.15;;
74044;SDS011;62389;51.412;5.436;2023-03-31T10:20:18;5.47;;;1.90;;
74044;SDS011;62389;51.412;5.436;2023-03-31T10:22:49;12.68;;;2.13;;
74044;SDS011;62389;51.412;5.436;2023-03-31T10:25:16;9.38;;;2.10;;
74044;SDS011;62389;51.412;5.436;2023-03-31T10:27:46;6.38;;;1.88;;
74044;SDS011;62389;51.412;5.436;2023-03-31T10:30:17;4.57;;;1.55;;
74044;SDS011;62389;51.412;5.436;2023-03-31T10:32:46;6.93;;;1.92;;
74044;SDS011;62389;51.412;5.436;2023-03-31T10:37:49;4.72;;;1.13;;
74044;SDS011;62389;51.412;5.436;2023-03-31T10:40:25;10.80;;;2.58;;
74044;SDS011;62389;51.412;5.436;2023-03-31T10:43:03;7.78;;;1.95;;
74044;SDS011;62389;51.412;5.436;2023-03-31T10:45:47;9.25;;;1.63;;
74044;SDS011;62389;51.412;5.436;2023-03-31T10:48:34;6.47;;;2.20;;
74044;SDS011;62389;51.412;5.436;2023-03-31T10:53:46;10.73;;;2.15;;
74044;SDS011;62389;51.412;5.436;2023-03-31T10:56:19;11.45;;;2.58;;
74044;SDS011;62389;51.412;5.436;2023-03-31T10:59:18;9.55;;;1.75;;
74044;SDS011;62389;51.412;5.436;2023-03-31T11:02:12;6.28;;;2.03;;
74044;SDS011;62389;51.412;5.436;2023-03-31T11:10:23;9.35;;;2.17;;
74044;SDS011;62389;51.412;5.436;2023-03-31T11:24:33;8.15;;;2.08;;
74044;SDS011;62389;51.412;5.436;2023-03-31T11:29:51;5.43;;;1.80;;
74044;SDS011;62389;51.412;5.436;2023-03-31T11:41:11;7.75;;;1.45;;
74044;SDS011;62389;51.412;5.436;2023-03-31T11:43:42;7.30;;;1.90;;
74044;SDS011;62389;51.412;5.436;2023-03-31T11:46:14;5.45;;;1.85;;
74044;SDS011;62389;51.412;5.436;2023-03-31T11:48:52;6.97;;;2.03;;
74044;SDS011;62389;51.412;5.436;2023-03-31T11:54:23;10.18;;;1.92;;
74044;SDS011;62389;51.412;5.436;2023-03-31T11:56:55;8.55;;;1.95;;
74044;SDS011;62389;51.412;5.436;2023-03-31T11:59:22;7.47;;;1.45;;
74044;SDS011;62389;51.412;5.436;2023-03-31T12:02:00;7.43;;;1.50;;
74044;SDS011;62389;51.412;5.436;2023-03-31T12:04:41;6.53;;;1.63;;
74044;SDS011;62389;51.412;5.436;2023-03-31T12:07:28;7.55;;;2.22;;
74044;SDS011;62389;51.412;5.436;2023-03-31T12:10:02;6.53;;;1.70;;
74044;SDS011;62389;51.412;5.436;2023-03-31T12:12:38;8.18;;;1.63;;
74044;SDS011;62389;51.412;5.436;2023-03-31T12:17:59;7.70;;;2.00;;
74044;SDS011;62389;51.412;5.436;2023-03-31T12:20:38;4.53;;;1.38;;
74044;SDS011;62389;51.412;5.436;2023-03-31T12:23:11;6.68;;;1.52;;
74044;SDS011;62389;51.412;5.436;2023-03-31T12:28:18;9.15;;;1.98;;
74044;SDS011;62389;51.412;5.436;2023-03-31T12:30:45;7.00;;;2.03;;
74044;SDS011;62389;51.412;5.436;2023-03-31T12:47:50;6.20;;;2.05;;
74044;SDS011;62389;51.412;5.436;2023-03-31T12:55:47;6.63;;;1.67;;
74044;SDS011;62389;51.412;5.436;2023-03-31T13:03:45;6.05;;;2.08;;
74044;SDS011;62389;51.412;5.436;2023-03-31T13:17:10;4.70;;;1.38;;
74044;SDS011;62389;51.412;5.436;2023-03-31T13:19:38;6.07;;;1.58;;
74044;SDS011;62389;51.412;5.436;2023-03-31T13:22:05;5.22;;;1.23;;
74044;SDS011;62389;51.412;5.436;2023-03-31T13:24:31;7.72;;;1.73;;
74044;SDS011;62389;51.412;5.436;2023-03-31T13:27:23;10.75;;;1.88;;
74044;SDS011;62389;51.412;5.436;2023-03-31T13:29:52;8.85;;;1.67;;
74044;SDS011;62389;51.412;5.436;2023-03-31T13:32:21;8.63;;;2.00;;
74044;SDS011;62389;51.412;5.436;2023-03-31T13:34:51;8.63;;;2.65;;
74044;SDS011;62389;51.412;5.436;2023-03-31T13:37:27;6.80;;;1.85;;
74044;SDS011;62389;51.412;5.436;2023-03-31T13:51:25;7.85;;;1.80;;
74044;SDS011;62389;51.412;5.436;2023-03-31T14:07:43;3.85;;;1.38;;
74044;SDS011;62389;51.412;5.436;2023-03-31T14:10:33;3.17;;;1.17;;
74044;SDS011;62389;51.412;5.436;2023-03-31T14:13:04;6.18;;;1.65;;
74044;SDS011;62389;51.412;5.436;2023-03-31T14:15:31;2.60;;;1.35;;
74044;SDS011;62389;51.412;5.436;2023-03-31T14:18:00;2.63;;;1.00;;
74044;SDS011;62389;51.412;5.436;2023-03-31T14:20:36;4.70;;;1.83;;
74044;SDS011;62389;51.412;5.436;2023-03-31T14:31:46;4.13;;;1.50;;
74044;SDS011;62389;51.412;5.436;2023-03-31T14:36:58;2.42;;;0.90;;
74044;SDS011;62389;51.412;5.436;2023-03-31T14:39:27;4.00;;;0.80;;
74044;SDS011;62389;51.412;5.436;2023-03-31T14:41:58;2.10;;;0.40;;
74044;SDS011;62389;51.412;5.436;2023-03-31T14:44:26;3.38;;;0.93;;
74044;SDS011;62389;51.412;5.436;2023-03-31T14:46:55;3.55;;;0.50;;
74044;SDS011;62389;51.412;5.436;2023-03-31T14:49:26;1.98;;;0.70;;
74044;SDS011;62389;51.412;5.436;2023-03-31T14:51:53;1.73;;;0.70;;
74044;SDS011;62389;51.412;5.436;2023-03-31T14:54:23;1.85;;;0.98;;
74044;SDS011;62389;51.412;5.436;2023-03-31T14:56:55;1.48;;;0.82;;
74044;SDS011;62389;51.412;5.436;2023-03-31T14:59:27;1.60;;;0.73;;
74044;SDS011;62389;51.412;5.436;2023-03-31T15:01:57;58.63;;;4.47;;
74044;SDS011;62389;51.412;5.436;2023-03-31T15:04:24;2.83;;;0.80;;
74044;SDS011;62389;51.412;5.436;2023-03-31T15:06:52;1.75;;;0.70;;
74044;SDS011;62389;51.412;5.436;2023-03-31T15:09:20;2.22;;;0.40;;
74044;SDS011;62389;51.412;5.436;2023-03-31T15:12:04;3.20;;;1.13;;
74044;SDS011;62389;51.412;5.436;2023-03-31T15:14:34;2.20;;;0.90;;
74044;SDS011;62389;51.412;5.436;2023-03-31T15:17:04;1.30;;;0.60;;
74044;SDS011;62389;51.412;5.436;2023-03-31T15:19:31;1.40;;;0.70;;
74044;SDS011;62389;51.412;5.436;2023-03-31T15:22:16;1.08;;;0.85;;
74044;SDS011;62389;51.412;5.436;2023-03-31T15:24:45;1.48;;;0.80;;
74044;SDS011;62389;51.412;5.436;2023-03-31T15:29:43;1.70;;;0.77;;
74044;SDS011;62389;51.412;5.436;2023-03-31T15:32:13;2.47;;;0.77;;
74044;SDS011;62389;51.412;5.436;2023-03-31T15:34:45;1.65;;;0.85;;
74044;SDS011;62389;51.412;5.436;2023-03-31T15:37:12;2.88;;;1.02;;
74044;SDS011;62389;51.412;5.436;2023-03-31T15:39:37;2.75;;;0.85;;
74044;SDS011;62389;51.412;5.436;2023-03-31T15:42:04;3.88;;;1.30;;
74044;SDS011;62389;51.412;5.436;2023-03-31T15:44:38;3.85;;;1.13;;
74044;SDS011;62389;51.412;5.436;2023-03-31T15:49:56;1.33;;;0.98;;
74044;SDS011;62389;51.412;5.436;2023-03-31T15:52:30;2.28;;;0.75;;
74044;SDS011;62389;51.412;5.436;2023-03-31T15:55:48;2.28;;;1.08;;
74044;SDS011;62389;51.412;5.436;2023-03-31T15:57:54;4.05;;;1.05;;
74044;SDS011;62389;51.412;5.436;2023-03-31T16:03:11;2.25;;;1.10;;
74044;SDS011;62389;51.412;5.436;2023-03-31T16:05:41;1.27;;;0.70;;
74044;SDS011;62389;51.412;5.436;2023-03-31T16:08:35;2.40;;;0.90;;
74044;SDS011;62389;51.412;5.436;2023-03-31T16:11:47;1.83;;;0.75;;
74044;SDS011;62389;51.412;5.436;2023-03-31T16:14:24;1.05;;;0.80;;
74044;SDS011;62389;51.412;5.436;2023-03-31T16:16:58;3.70;;;0.90;;
74044;SDS011;62389;51.412;5.436;2023-03-31T16:19:29;1.42;;;0.93;;
74044;SDS011;62389;51.412;5.436;2023-03-31T16:22:05;4.22;;;1.70;;
74044;SDS011;62389;51.412;5.436;2023-03-31T16:24:36;3.63;;;0.90;;
74044;SDS011;62389;51.412;5.436;2023-03-31T16:27:02;5.38;;;1.35;;
74044;SDS011;62389;51.412;5.436;2023-03-31T16:29:33;4.90;;;0.93;;
74044;SDS011;62389;51.412;5.436;2023-03-31T16:34:32;2.47;;;1.00;;
74044;SDS011;62389;51.412;5.436;2023-03-31T16:36:57;1.10;;;1.00;;
74044;SDS011;62389;51.412;5.436;2023-03-31T16:39:22;1.70;;;0.52;;
74044;SDS011;62389;51.412;5.436;2023-03-31T16:41:48;1.50;;;0.90;;
74044;SDS011;62389;51.412;5.436;2023-03-31T16:44:13;2.50;;;1.10;;
74044;SDS011;62389;51.412;5.436;2023-03-31T16:46:38;1.92;;;1.00;;
74044;SDS011;62389;51.412;5.436;2023-03-31T16:49:04;4.65;;;1.10;;
74044;SDS011;62389;51.412;5.436;2023-03-31T16:51:30;2.85;;;0.90;;
74044;SDS011;62389;51.412;5.436;2023-03-31T16:53:55;1.30;;;0.85;;
74044;SDS011;62389;51.412;5.436;2023-03-31T16:56:20;4.05;;;1.13;;
74044;SDS011;62389;51.412;5.436;2023-03-31T16:58:46;1.77;;;0.98;;
74044;SDS011;62389;51.412;5.436;2023-03-31T17:01:11;2.65;;;1.08;;
74044;SDS011;62389;51.412;5.436;2023-03-31T17:03:37;2.88;;;1.50;;
74044;SDS011;62389;51.412;5.436;2023-03-31T17:06:06;3.03;;;0.70;;
74044;SDS011;62389;51.412;5.436;2023-03-31T17:08:36;3.97;;;1.48;;
74044;SDS011;62389;51.412;5.436;2023-03-31T17:11:04;3.45;;;1.10;;
74044;SDS011;62389;51.412;5.436;2023-03-31T17:13:35;2.83;;;1.05;;
74044;SDS011;62389;51.412;5.436;2023-03-31T17:16:04;2.70;;;0.85;;
74044;SDS011;62389;51.412;5.436;2023-03-31T17:18:30;1.92;;;1.48;;
74044;SDS011;62389;51.412;5.436;2023-03-31T17:21:01;2.17;;;0.98;;
74044;SDS011;62389;51.412;5.436;2023-03-31T17:23:31;1.92;;;0.95;;
74044;SDS011;62389;51.412;5.436;2023-03-31T17:25:57;3.10;;;0.88;;
74044;SDS011;62389;51.412;5.436;2023-03-31T17:28:22;2.47;;;0.70;;
74044;SDS011;62389;51.412;5.436;2023-03-31T17:30:48;1.33;;;0.52;;
74044;SDS011;62389;51.412;5.436;2023-03-31T17:33:14;3.47;;;1.13;;
74044;SDS011;62389;51.412;5.436;2023-03-31T17:35:40;5.30;;;1.42;;
74044;SDS011;62389;51.412;5.436;2023-03-31T17:38:06;4.13;;;1.38;;
74044;SDS011;62389;51.412;5.436;2023-03-31T17:40:33;2.67;;;0.93;;
74044;SDS011;62389;51.412;5.436;2023-03-31T17:42:59;2.95;;;0.80;;
74044;SDS011;62389;51.412;5.436;2023-03-31T17:45:26;2.15;;;1.25;;
74044;SDS011;62389;51.412;5.436;2023-03-31T17:47:53;3.00;;;1.35;;
74044;SDS011;62389;51.412;5.436;2023-03-31T17:50:18;4.18;;;1.60;;
74044;SDS011;62389;51.412;5.436;2023-03-31T17:52:44;2.22;;;0.93;;
74044;SDS011;62389;51.412;5.436;2023-03-31T17:55:10;4.32;;;1.30;;
74044;SDS011;62389;51.412;5.436;2023-03-31T17:57:36;4.38;;;1.17;;
74044;SDS011;62389;51.412;5.436;2023-03-31T18:00:03;3.00;;;1.10;;
74044;SDS011;62389;51.412;5.436;2023-03-31T18:02:29;3.03;;;1.05;;
74044;SDS011;62389;51.412;5.436;2023-03-31T18:04:55;1.90;;;1.05;;
74044;SDS011;62389;51.412;5.436;2023-03-31T18:07:20;2.00;;;1.10;;
74044;SDS011;62389;51.412;5.436;2023-03-31T18:09:47;3.55;;;1.13;;
74044;SDS011;62389;51.412;5.436;2023-03-31T18:12:13;2.55;;;0.80;;
74044;SDS011;62389;51.412;5.436;2023-03-31T18:14:38;3.35;;;1.10;;
74044;SDS011;62389;51.412;5.436;2023-03-31T18:17:04;1.85;;;0.50;;
74044;SDS011;62389;51.412;5.436;2023-03-31T18:19:29;8.80;;;1.38;;
74044;SDS011;62389;51.412;5.436;2023-03-31T18:21:57;3.10;;;0.90;;
74044;SDS011;62389;51.412;5.436;2023-03-31T18:24:23;4.40;;;1.45;;